Time;durP1;ratioP1;P1;durP2;ratioP2;P2;SDS_P1;SDS_P2;PMS_P1;PMS_P2;Temp;Humidity;BMP_temperature;BMP_pressure;BME280_temperature;BME280_humidity;BME280_pressure;Samples;Min_cycle;Max_cycle;Signal;HPM_P1;HPM_P2
2022/04/23 00:00:25;;;;;;;8.45;7.38;;;;;;;10.51;65.67;99512.50;5053853;28;20055;-69
2022/04/23 00:03:28;;;;;;;;;;;;;;;10.65;65.16;99514.16;5053832;28;20044;-69
2022/04/23 00:06:31;;;;;;;8.63;7.57;;;;;;;10.57;65.79;99511.25;5052380;28;19974;-69
2022/04/23 00:09:35;;;;;;;9.18;8.18;;;;;;;10.52;65.58;99513.34;5046889;28;20047;-69
2022/04/23 00:12:39;;;;;;;8.30;7.43;;;;;;;10.56;65.29;99513.03;5033404;28;20061;-69
2022/04/23 00:15:43;;;;;;;9.20;7.97;;;;;;;10.45;65.75;99508.53;5033211;28;20091;-69
2022/04/23 00:18:46;;;;;;;9.98;8.98;;;;;;;10.36;66.54;99511.75;5033027;28;20087;-69
2022/04/23 00:21:49;;;;;;;;;;;;;;;10.27;67.16;99520.19;5033723;28;20087;-69
2022/04/23 00:24:53;;;;;;;10.25;8.60;;;;;;;10.38;66.24;99511.66;5033046;28;19987;-69
2022/04/23 00:27:57;;;;;;;9.93;8.88;;;;;;;10.37;66.92;99516.06;5033144;28;20404;-69
2022/04/23 00:31:01;;;;;;;10.65;8.20;;;;;;;10.34;67.17;99505.81;5033071;28;20099;-69
2022/04/23 00:34:04;;;;;;;12.02;8.75;;;;;;;10.16;67.11;99510.44;5032872;28;20040;-69
2022/04/23 00:37:08;;;;;;;10.50;9.05;;;;;;;10.24;66.45;99500.34;5032884;28;20048;-69
2022/04/23 00:40:17;;;;;;;;;;;;;;;10.19;66.41;99497.19;5033813;28;20044;-69
2022/04/23 00:43:26;;;;;;;9.32;8.35;;;;;;;10.28;65.99;99495.78;5033330;28;19924;-69
2022/04/23 00:46:30;;;;;;;12.70;8.55;;;;;;;10.14;66.39;99495.81;5033432;28;20048;-69
2022/04/23 00:49:33;;;;;;;10.95;8.85;;;;;;;10.10;65.89;99492.56;5032717;28;20049;-68
2022/04/23 00:52:37;;;;;;;10.43;9.15;;;;;;;9.98;66.99;99499.44;5032639;28;20087;-69
2022/04/23 00:55:40;;;;;;;;;;;;;;;10.09;66.74;99500.53;5033089;28;20110;-69
2022/04/23 00:58:44;;;;;;;11.55;9.90;;;;;;;10.00;66.93;99496.75;5033020;28;19967;-68
2022/04/23 01:01:48;;;;;;;12.65;11.35;;;;;;;10.17;65.89;99500.84;5032188;28;20452;-68
2022/04/23 01:04:53;;;;;;;11.90;10.57;;;;;;;9.99;67.37;99506.34;5032602;28;20126;-69
2022/04/23 01:08:02;;;;;;;12.35;11.05;;;;;;;10.21;65.90;99497.94;5032390;28;20047;-68
2022/04/23 01:11:06;;;;;;;11.70;10.23;;;;;;;10.18;66.52;99494.69;5032394;28;20080;-68
2022/04/23 01:14:10;;;;;;;13.90;12.50;;;;;;;10.20;66.37;99498.03;5030616;28;20082;-68
2022/04/23 01:17:14;;;;;;;12.23;11.02;;;;;;;10.00;67.53;99497.56;4696295;28;10000492;-68
2022/04/23 01:20:18;;;;;;;12.07;10.88;;;;;;;9.80;68.00;99498.06;5048283;28;20060;-68
2022/04/23 01:23:21;;;;;;;12.10;10.80;;;;;;;9.98;67.86;99496.81;5047534;28;20079;-69
2022/04/23 01:26:28;;;;;;;;;;;;;;;9.78;68.35;99498.16;5049293;28;20118;-69
2022/04/23 01:29:31;;;;;;;12.98;11.68;;;;;;;9.74;68.46;99495.84;5047126;28;20066;-69
2022/04/23 01:32:35;;;;;;;12.75;11.32;;;;;;;9.66;69.01;99498.09;5048146;28;20044;-68
2022/04/23 01:35:38;;;;;;;16.10;13.00;;;;;;;10.01;67.75;99504.47;5048068;28;20607;-69
2022/04/23 01:38:43;;;;;;;13.15;11.75;;;;;;;9.88;67.96;99501.00;5047490;28;20052;-69
2022/04/23 01:41:47;;;;;;;14.80;12.18;;;;;;;9.76;68.66;99500.03;5047934;28;20055;-68
2022/04/23 01:44:52;;;;;;;13.82;12.00;;;;;;;9.76;68.65;99500.03;5047698;28;20052;-68
2022/04/23 01:47:55;;;;;;;14.52;12.63;;;;;;;9.86;68.41;99500.28;5048362;28;20119;-69
2022/04/23 01:50:58;;;;;;;13.52;12.13;;;;;;;9.59;69.53;99502.88;5048442;28;20687;-69
2022/04/23 01:54:02;;;;;;;15.50;12.35;;;;;;;9.82;68.63;99501.38;5047837;28;20107;-69
2022/04/23 01:57:06;;;;;;;13.43;12.13;;;;;;;9.84;68.68;99507.34;5048308;28;20495;-68
2022/04/23 02:00:13;;;;;;;14.65;13.18;;;;;;;9.76;68.70;99500.03;5047505;28;20047;-69
2022/04/23 02:03:17;;;;;;;14.45;13.05;;;;;;;9.67;69.41;99505.84;5047996;28;20060;-69
2022/04/23 02:06:20;;;;;;;15.63;13.07;;;;;;;9.70;69.32;99504.78;5041840;28;20060;-68
2022/04/23 02:09:24;;;;;;;15.25;13.75;;;;;;;9.72;68.54;99513.38;5047665;28;20143;-68
2022/04/23 02:12:26;;;;;;;;;;;;;;;9.63;69.00;99503.53;5048056;28;20391;-68
2022/04/23 02:15:30;;;;;;;14.65;13.20;;;;;;;9.66;68.64;99508.53;5051467;28;19978;-69
2022/04/23 02:18:33;;;;;;;14.95;13.38;;;;;;;9.57;69.03;99501.31;5048414;28;20072;-68
2022/04/23 02:21:37;;;;;;;14.30;12.85;;;;;;;9.46;69.68;99502.00;5051364;28;20519;-68
2022/04/23 02:24:40;;;;;;;15.80;14.15;;;;;;;9.48;69.33;99495.75;5051639;28;20540;-68
2022/04/23 02:27:48;;;;;;;13.98;12.60;;;;;;;9.56;69.29;99503.09;5050950;28;20140;-69
2022/04/23 02:30:52;;;;;;;15.60;13.20;;;;;;;9.22;70.85;99501.78;5051347;28;20522;-68
2022/04/23 02:33:57;;;;;;;14.70;13.20;;;;;;;9.36;70.24;99493.94;5051554;28;20076;-68
2022/04/23 02:37:02;;;;;;;16.55;14.73;;;;;;;9.10;70.95;99499.97;5051868;28;20067;-68
2022/04/23 02:40:07;;;;;;;15.93;14.52;;;;;;;9.14;70.85;99501.44;5051584;28;20183;-68
2022/04/23 02:43:12;;;;;;;15.48;12.95;;;;;;;9.03;71.51;99505.56;5050731;28;20598;-68
2022/04/23 02:46:16;;;;;;;15.13;13.63;;;;;;;9.10;71.22;99510.41;5051221;28;20408;-69
2022/04/23 02:49:21;;;;;;;15.15;12.50;;;;;;;9.07;71.23;99499.22;5038521;28;20209;-69
2022/04/23 02:52:25;;;;;;;16.30;14.70;;;;;;;8.89;71.86;99497.72;5050740;28;20182;-68
2022/04/23 02:55:31;;;;;;;17.52;14.43;;;;;;;9.06;71.19;99492.31;5050992;28;20106;-69
2022/04/23 02:58:34;;;;;;;15.68;14.10;;;;;;;9.11;71.14;99496.41;5050818;28;20051;-68
2022/04/23 03:01:39;;;;;;;;;;;;;;;9.04;70.95;99502.00;5051148;28;20060;-68
2022/04/23 03:04:43;;;;;;;17.17;14.32;;;;;;;8.86;72.11;99500.53;5050185;28;19924;-68
2022/04/23 03:07:48;;;;;;;18.13;15.98;;;;;;;9.01;71.87;99496.16;5050137;28;20432;-68
2022/04/23 03:10:51;;;;;;;15.65;14.02;;;;;;;9.03;71.56;99489.03;5050395;28;20522;-68
2022/04/23 03:13:55;;;;;;;16.38;14.68;;;;;;;9.10;72.19;99485.16;5050610;28;20055;-68
2022/04/23 03:16:58;;;;;;;;;;;;;;;9.04;72.05;99496.78;5049981;28;20043;-68
2022/04/23 03:20:04;;;;;;;16.52;14.88;;;;;;;8.96;72.23;99499.03;5049273;28;19924;-68
2022/04/23 03:23:08;;;;;;;16.02;14.43;;;;;;;9.00;72.04;99495.31;5050574;28;20068;-69
2022/04/23 03:26:11;;;;;;;15.35;13.25;;;;;;;8.81;72.70;99497.38;5049775;28;20114;-68
2022/04/23 03:29:14;;;;;;;16.67;14.65;;;;;;;8.96;72.55;99500.81;5050650;28;20398;-68
2022/04/23 03:32:18;;;;;;;17.55;14.38;;;;;;;9.07;71.92;99506.19;5050438;28;20079;-69
2022/04/23 03:35:22;;;;;;;17.00;15.30;;;;;;;8.92;72.26;99501.94;5050286;28;20047;-68
2022/04/23 03:38:26;;;;;;;16.52;14.93;;;;;;;8.72;73.36;99500.56;5046293;28;20051;-68
2022/04/23 03:41:29;;;;;;;18.23;14.60;;;;;;;8.77;73.38;99503.69;5035499;28;20146;-68
2022/04/23 03:44:33;;;;;;;15.70;14.20;;;;;;;8.70;73.62;99503.22;5045681;28;20044;-68
2022/04/23 03:47:42;;;;;;;15.55;14.00;;;;;;;8.52;74.17;99494.78;5049913;28;20120;-68
2022/04/23 03:50:47;;;;;;;14.75;13.25;;;;;;;8.50;73.70;99499.22;5050235;28;20144;-68
2022/04/23 03:53:50;;;;;;;15.65;13.68;;;;;;;8.41;74.33;99504.16;5049708;28;20128;-69
2022/04/23 03:56:54;;;;;;;16.45;14.18;;;;;;;8.19;74.69;99504.56;5040694;28;20071;-69
2022/04/23 04:00:04;;;;;;;14.25;12.85;;;;;;;8.07;74.93;99500.88;5035727;28;20102;-69
2022/04/23 04:03:07;;;;;;;17.15;13.55;;;;;;;8.08;74.44;99500.81;5045322;28;20141;-69
2022/04/23 04:06:11;;;;;;;16.63;13.05;;;;;;;8.03;74.05;99508.03;5061388;28;20056;-69
2022/04/23 04:09:14;;;;;;;14.35;12.20;;;;;;;7.80;74.64;99509.38;5065194;28;20137;-69
2022/04/23 04:12:17;;;;;;;;;;;;;;;7.73;74.73;99507.22;5065176;28;20097;-69
2022/04/23 04:15:23;;;;;;;15.38;12.90;;;;;;;7.67;74.42;99511.00;5042557;28;20000;-69
2022/04/23 04:18:26;;;;;;;13.82;12.00;;;;;;;7.69;74.28;99502.19;4686365;28;9999844;-69
2022/04/23 04:21:30;;;;;;;15.18;12.90;;;;;;;7.69;73.86;99499.59;5031961;28;20107;-69
2022/04/23 04:24:34;;;;;;;14.48;12.90;;;;;;;7.46;74.83;99505.22;5025205;28;20532;-69
2022/04/23 04:27:38;;;;;;;14.13;12.73;;;;;;;7.51;75.02;99508.41;5027838;28;20103;-69
2022/04/23 04:34:03;;;;;;;16.33;13.73;;;;;;;7.48;74.20;99505.97;5029802;28;20551;-69
2022/04/23 04:37:10;;;;;;;;;;;;;;;7.46;74.56;99502.63;5042009;28;20487;-69
2022/04/23 04:40:14;;;;;;;14.80;13.20;;;;;;;7.50;74.25;99498.94;5029072;28;19923;-69
2022/04/23 04:43:17;;;;;;;13.73;12.25;;;;;;;7.61;74.11;99501.75;5029568;28;20467;-69
2022/04/23 04:50:11;;;;;;;13.48;11.90;;;;;;;8.16;72.11;99509.00;5027982;28;20427;-69
2022/04/23 04:53:15;;;;;;;14.30;12.88;;;;;;;8.25;71.35;99512.00;5029914;28;20046;-69
2022/04/23 04:56:19;;;;;;;14.88;13.02;;;;;;;8.44;70.88;99510.03;5028594;28;20103;-69
2022/04/23 04:59:23;;;;;;;13.43;11.98;;;;;;;8.51;70.89;99513.09;5028394;28;20056;-69
2022/04/23 05:02:26;;;;;;;17.83;12.88;;;;;;;8.41;70.92;99509.38;5047455;28;20040;-69
2022/04/23 05:05:30;;;;;;;14.95;13.45;;;;;;;8.47;71.42;99514.22;5047769;28;20114;-69
2022/04/23 05:08:35;;;;;;;13.80;12.30;;;;;;;8.58;70.67;99515.25;5047115;28;20048;-69
2022/04/23 05:11:40;;;;;;;14.85;12.82;;;;;;;8.34;72.08;99514.06;5047547;28;20075;-69
2022/04/23 05:14:43;;;;;;;16.27;13.07;;;;;;;8.49;71.76;99526.22;5055486;28;20511;-69
2022/04/23 05:17:47;;;;;;;14.68;13.15;;;;;;;8.61;71.57;99525.50;5067673;28;20050;-69
2022/04/23 05:20:51;;;;;;;31.20;13.68;;;;;;;8.56;72.00;99537.94;5049223;28;20435;-69
2022/04/23 05:23:56;;;;;;;14.30;12.80;;;;;;;8.64;71.78;99544.47;5036189;28;20048;-69
2022/04/23 05:26:59;;;;;;;13.90;12.50;;;;;;;8.60;71.69;99534.22;5047315;28;20140;-69
2022/04/23 05:30:03;;;;;;;15.25;13.65;;;;;;;8.73;71.19;99541.31;5063093;28;20133;-69
2022/04/23 05:33:07;;;;;;;15.55;13.50;;;;;;;8.36;71.88;99535.66;5060974;28;20036;-69
2022/04/23 05:36:10;;;;;;;19.95;17.95;;;;;;;8.55;71.30;99538.88;5035255;28;20231;-68
2022/04/23 05:39:13;;;;;;;15.52;13.85;;;;;;;8.54;72.13;99547.63;5048961;28;20056;-69
2022/04/23 05:42:16;;;;;;;16.85;13.48;;;;;;;8.56;72.41;99543.16;5046648;28;20050;-69
2022/04/23 05:45:20;;;;;;;;;;;;;;;8.75;72.11;99544.69;5028259;28;20412;-69
2022/04/23 05:48:24;;;;;;;16.45;12.60;;;;;;;9.04;71.37;99543.72;5028580;28;19959;-69
2022/04/23 05:51:27;;;;;;;13.43;11.80;;;;;;;9.24;70.25;99547.69;5031782;28;20502;-69
2022/04/23 05:54:30;;;;;;;16.08;13.80;;;;;;;8.95;71.57;99540.84;5031719;28;20508;-69
2022/04/23 05:57:34;;;;;;;15.50;12.85;;;;;;;9.05;71.69;99544.56;5031457;28;20103;-69
2022/04/23 06:00:37;;;;;;;14.25;12.65;;;;;;;8.93;71.56;99546.13;5030559;28;20524;-69
2022/04/23 06:03:41;;;;;;;14.88;13.35;;;;;;;9.18;70.93;99539.44;5030912;28;20044;-69
2022/04/23 06:06:44;;;;;;;14.88;13.18;;;;;;;9.29;70.34;99532.63;5031140;28;20515;-69
2022/04/23 06:09:47;;;;;;;;;;;;;;;9.38;70.56;99527.72;5031878;28;20048;-69
2022/04/23 06:12:51;;;;;;;15.93;12.63;;;;;;;9.42;71.09;99527.47;5060047;28;19926;-69
2022/04/23 06:15:54;;;;;;;;;;;;;;;9.65;70.36;99527.75;5073493;28;20054;-69
2022/04/23 06:18:58;;;;;;;14.45;11.93;;;;;;;9.70;70.98;99525.69;5070754;28;20016;-69
2022/04/23 06:22:02;;;;;;;14.50;12.93;;;;;;;9.68;71.55;99530.19;5049229;28;20036;-69
2022/04/23 06:25:06;;;;;;;14.00;12.52;;;;;;;9.83;71.00;99529.19;5011436;28;20077;-69
2022/04/23 06:28:10;;;;;;;12.57;11.27;;;;;;;9.98;70.94;99530.78;4991635;28;20108;-69
2022/04/23 06:31:13;;;;;;;13.27;11.85;;;;;;;10.13;70.62;99528.09;4991509;28;20053;-69
2022/04/23 06:34:17;;;;;;;13.27;11.75;;;;;;;10.29;70.23;99528.78;4992219;28;20087;-69
2022/04/23 06:37:21;;;;;;;12.68;11.32;;;;;;;10.17;71.29;99524.34;5007632;28;20092;-69
2022/04/23 06:40:24;;;;;;;;;;;;;;;10.31;70.50;99524.31;5010153;28;20049;-69
2022/04/23 06:43:27;;;;;;;11.00;9.40;;;;;;;10.44;69.84;99517.31;5010827;28;19924;-69
2022/04/23 06:46:31;;;;;;;11.13;10.00;;;;;;;10.58;70.09;99516.38;5010716;28;20052;-69
2022/04/23 06:49:34;;;;;;;10.52;9.43;;;;;;;10.63;69.33;99516.06;5011557;28;20048;-69
2022/04/23 06:52:38;;;;;;;;;;;;;;;10.72;69.09;99515.44;5011646;28;20063;-69
2022/04/23 06:55:41;;;;;;;;;;;;;;;10.84;68.33;99514.56;4999554;28;19924;-69
2022/04/23 06:58:46;;;;;;;9.98;8.63;;;;;;;10.94;67.80;99506.91;4991102;28;19998;-70
2022/04/23 07:01:49;;;;;;;10.48;7.35;;;;;;;11.12;68.02;99513.47;5007348;28;20036;-71
2022/04/23 07:04:52;;;;;;;8.38;7.10;;;;;;;11.25;66.96;99508.22;5010313;28;20095;-71
2022/04/23 07:07:58;;;;;;;8.60;7.65;;;;;;;11.46;68.17;99515.47;5011152;28;20108;-70
2022/04/23 07:11:02;;;;;;;9.48;7.38;;;;;;;11.62;64.82;99514.25;5010384;28;20053;-70
2022/04/23 07:14:07;;;;;;;7.82;6.85;;;;;;;11.64;64.42;99509.72;5010991;28;20041;-71
2022/04/23 07:17:10;;;;;;;8.18;7.18;;;;;;;11.63;63.85;99515.91;5015418;28;20087;-70
2022/04/23 07:20:14;;;;;;;8.02;6.70;;;;;;;11.69;64.27;99517.25;5014642;28;20127;-70
2022/04/23 07:26:40;;;;;;;10.32;7.47;;;;;;;11.74;63.29;99515.16;5030564;28;20619;-70
2022/04/23 07:29:44;;;;;;;11.23;6.53;;;;;;;11.95;63.66;99506.69;5030517;28;20044;-84
2022/04/23 07:32:48;;;;;;;7.13;6.43;;;;;;;12.16;62.26;99510.34;5033381;28;20119;-78
2022/04/23 07:39:12;;;;;;;7.47;6.50;;;;;;;12.22;61.41;99509.88;5034039;28;20048;-70
2022/04/23 07:42:16;;;;;;;8.25;7.05;;;;;;;12.24;61.75;99512.38;5034310;28;20099;-70
2022/04/23 07:45:19;;;;;;;6.50;5.75;;;;;;;12.25;61.18;99506.16;5034269;28;20504;-70
2022/04/23 07:48:23;;;;;;;8.90;6.30;;;;;;;12.40;60.80;99501.56;5034011;28;20052;-70
2022/04/23 07:51:27;;;;;;;8.70;6.18;;;;;;;12.51;60.63;99504.22;5033704;28;20044;-70
2022/04/23 07:54:30;;;;;;;8.13;6.10;;;;;;;12.63;61.00;99505.88;5034485;28;20040;-70
2022/04/23 07:57:35;;;;;;;7.13;6.43;;;;;;;12.84;59.69;99510.41;5034310;28;20064;-69
2022/04/23 08:00:40;;;;;;;9.13;6.15;;;;;;;13.00;59.40;99500.38;5034436;28;20123;-70
2022/04/23 08:03:43;;;;;;;7.65;6.40;;;;;;;13.15;59.60;99499.19;5033663;28;20043;-70
2022/04/23 08:06:47;;;;;;;7.30;5.70;;;;;;;13.25;58.70;99494.06;5033998;28;20099;-70
2022/04/23 08:09:50;;;;;;;7.35;5.32;;;;;;;13.49;58.18;99486.84;5033676;28;20076;-70
2022/04/23 08:12:55;;;;;;;5.55;5.00;;;;;;;13.46;57.46;99481.00;5032970;28;20111;-70
2022/04/23 08:16:00;;;;;;;6.55;5.25;;;;;;;13.52;56.77;99488.38;5033730;28;20056;-70
2022/04/23 08:19:03;;;;;;;5.78;5.18;;;;;;;13.62;57.74;99497.19;5033355;28;20432;-70
2022/04/23 08:22:06;;;;;;;6.13;4.80;;;;;;;13.86;57.16;99483.84;5020951;28;20066;-70
2022/04/23 08:25:10;;;;;;;6.82;5.25;;;;;;;13.95;56.40;99493.59;5032964;28;20531;-70
2022/04/23 08:31:36;;;;;;;7.55;5.28;;;;;;;14.02;55.68;99503.59;5033933;28;20132;-70
2022/04/23 08:34:39;;;;;;;6.68;5.20;;;;;;;14.10;55.09;99488.88;5033501;28;20440;-70
2022/04/23 08:37:43;;;;;;;5.55;4.07;;;;;;;14.19;55.26;99489.88;5034085;28;20057;-70
2022/04/23 08:40:47;;;;;;;4.97;4.40;;;;;;;14.22;54.85;99492.25;5033781;28;20511;-70
2022/04/23 08:43:50;;;;;;;5.50;4.65;;;;;;;14.37;54.54;99495.41;5033376;28;20049;-70
2022/04/23 08:46:55;;;;;;;5.25;4.75;;;;;;;14.45;54.13;99498.19;5033607;28;20068;-70
2022/04/23 08:50:00;;;;;;;4.93;4.25;;;;;;;14.50;53.99;99496.03;5033267;28;20119;-70
2022/04/23 08:53:18;;;;;;;7.70;5.43;;;;;;;14.58;53.57;99490.97;5035722;28;20130;-70
2022/04/23 08:56:21;;;;;;;5.97;4.30;;;;;;;14.64;54.77;99485.19;5038680;28;20084;-70
2022/04/23 08:59:24;;;;;;;11.50;5.70;;;;;;;14.54;53.76;99489.56;5057347;28;20068;-70
2022/04/23 09:02:29;;;;;;;6.57;5.43;;;;;;;14.39;53.72;99494.31;5057595;28;20036;-70
2022/04/23 09:05:32;;;;;;;7.03;5.60;;;;;;;14.38;54.20;99481.28;5033364;28;20123;-70
2022/04/23 09:08:35;;;;;;;6.15;4.97;;;;;;;14.51;53.68;99483.72;5035062;28;20459;-71
2022/04/23 09:11:45;;;;;;;6.20;5.60;;;;;;;14.59;54.12;99492.63;5032820;28;20084;-73
2022/04/23 09:14:48;;;;;;;6.70;5.80;;;;;;;14.22;53.67;99488.78;5057678;28;20087;-72
2022/04/23 09:24:43;;;;;;;6.95;5.93;;;;;;;14.63;52.78;99490.56;5051840;28;20095;-70
2022/04/23 09:27:47;;;;;;;6.78;5.97;;;;;;;14.55;53.17;99485.97;5052893;28;20055;-70
2022/04/23 09:30:54;;;;;;;8.02;6.53;;;;;;;14.51;53.00;99489.00;5052116;28;20083;-70
2022/04/23 09:33:57;;;;;;;8.85;6.20;;;;;;;14.55;52.60;99485.13;5052662;28;20059;-71
2022/04/23 09:37:01;;;;;;;9.07;6.18;;;;;;;14.56;52.22;99487.63;5052687;28;20044;-71
2022/04/23 09:40:17;;;;;;;6.55;5.35;;;;;;;14.64;52.51;99474.69;5052763;28;20067;-70
2022/04/23 09:43:32;;;;;;;7.68;6.30;;;;;;;14.85;52.04;99473.78;5052639;28;20102;-70
2022/04/23 09:46:47;;;;;;;7.68;6.38;;;;;;;14.92;51.97;99485.44;5047433;28;20048;-70
2022/04/23 09:49:57;;;;;;;6.70;5.90;;;;;;;15.04;51.92;99481.72;5033743;28;20111;-71
2022/04/23 09:53:11;;;;;;;8.93;5.97;;;;;;;15.03;51.65;99485.34;5035368;28;20049;-70
2022/04/23 09:56:17;;;;;;;8.52;4.90;;;;;;;15.09;51.85;99478.69;5032416;28;20448;-70
2022/04/23 09:59:22;;;;;;;6.00;5.13;;;;;;;15.14;51.01;99475.66;5032710;28;20051;-70
2022/04/23 10:02:25;;;;;;;6.93;5.40;;;;;;;15.08;51.40;99467.31;5032113;28;20091;-71
2022/04/23 10:05:30;;;;;;;8.05;5.75;;;;;;;14.94;50.93;99480.88;5032319;28;20044;-71
2022/04/23 10:08:35;;;;;;;6.38;5.25;;;;;;;14.88;51.21;99479.59;5032644;28;20575;-71
2022/04/23 10:11:42;;;;;;;7.75;5.65;;;;;;;15.03;51.25;99480.06;5020076;28;20049;-71
2022/04/23 10:15:00;;;;;;;6.15;5.55;;;;;;;15.09;51.05;99483.94;5038349;28;20052;-72
2022/04/23 10:18:09;;;;;;;8.65;5.60;;;;;;;15.20;50.46;99480.38;5047197;28;20151;-73
2022/04/23 10:21:29;;;;;;;12.10;10.73;;;;;;;15.18;50.95;99474.41;5068790;28;20044;-72
2022/04/23 10:24:48;;;;;;;6.00;5.18;;;;;;;15.31;50.34;99477.63;5057129;28;20052;-68
2022/04/23 10:27:55;;;;;;;7.03;4.50;;;;;;;15.34;49.77;99464.19;5027426;28;20064;-70
2022/04/23 10:31:15;;;;;;;6.82;4.43;;;;;;;15.52;50.53;99464.34;5027799;28;20068;-70
2022/04/23 10:34:32;;;;;;;4.63;3.60;;;;;;;15.63;51.09;99466.00;5028742;28;20685;-68
2022/04/23 10:37:42;;;;;;;4.68;3.70;;;;;;;15.64;49.69;99465.06;5032840;28;20136;-69
2022/04/23 10:40:46;;;;;;;4.70;3.03;;;;;;;15.52;49.40;99462.53;5032373;28;20129;-69
2022/04/23 10:43:55;;;;;;;6.57;3.53;;;;;;;15.49;48.92;99449.66;5035198;28;20040;-70
2022/04/23 10:46:59;;;;;;;5.70;2.72;;;;;;;15.68;48.92;99451.50;5057673;28;20578;-70
2022/04/23 10:50:16;;;;;;;15.73;3.42;;;;;;;15.95;49.03;99458.72;5033493;28;20841;-69
2022/04/23 10:53:37;;;;;;;5.28;2.50;;;;;;;16.14;48.68;99443.81;5031840;28;20052;-69
2022/04/23 10:56:40;;;;;;;5.25;2.50;;;;;;;16.15;47.50;99448.13;5052394;28;20166;-69
2022/04/23 10:59:45;;;;;;;4.22;2.50;;;;;;;16.06;47.25;99441.06;5047181;28;20569;-70
2022/04/23 11:03:06;;;;;;;3.30;2.40;;;;;;;16.22;47.08;99434.22;5032497;28;20053;-70
2022/04/23 11:12:55;;;;;;;4.22;2.00;;;;;;;16.03;47.70;99428.97;5031082;28;20405;-70
2022/04/23 11:16:07;;;;;;;3.30;2.05;;;;;;;15.89;46.98;99425.00;5033254;28;20124;-69
2022/04/23 11:19:11;;;;;;;2.72;1.83;;;;;;;15.87;46.88;99432.19;5030368;28;20052;-69
2022/04/23 11:22:14;;;;;;;3.50;2.10;;;;;;;15.76;46.75;99424.44;5030554;28;20048;-69
2022/04/23 11:25:18;;;;;;;3.55;2.33;;;;;;;15.61;47.69;99425.81;5030203;28;20052;-70
2022/04/23 11:28:22;;;;;;;5.25;3.53;;;;;;;15.42;48.12;99427.47;5029590;28;20472;-70
2022/04/23 11:31:26;;;;;;;5.40;3.88;;;;;;;15.30;48.57;99425.94;5030664;28;20060;-69
2022/04/23 11:34:29;;;;;;;8.20;3.83;;;;;;;15.34;48.86;99430.78;5030255;28;20040;-69
2022/04/23 11:37:37;;;;;;;7.07;4.45;;;;;;;15.49;47.86;99427.75;5032018;28;20088;-69
2022/04/23 11:40:41;;;;;;;6.10;4.53;;;;;;;15.23;48.50;99424.81;5031645;28;20176;-69
2022/04/23 11:43:44;;;;;;;5.40;4.82;;;;;;;15.30;48.42;99429.38;5031389;28;20583;-69
2022/04/23 11:46:53;;;;;;;7.88;4.63;;;;;;;15.35;48.45;99421.09;5031887;28;20511;-69
2022/04/23 11:50:28;;;;;;;6.72;5.18;;;;;;;15.50;48.07;99414.41;5033577;28;20096;-69
2022/04/23 11:53:53;;;;;;;13.93;5.32;;;;;;;15.63;47.90;99415.94;5021178;28;20444;-69
2022/04/23 11:56:57;;;;;;;7.53;4.90;;;;;;;15.72;47.30;99420.41;5033782;28;20083;-69
2022/04/23 12:00:03;;;;;;;6.50;4.65;;;;;;;15.80;47.13;99420.56;5033727;28;20049;-69
2022/04/23 12:03:08;;;;;;;5.20;4.43;;;;;;;15.69;46.71;99420.69;5033594;28;20051;-69
2022/04/23 12:06:11;;;;;;;6.20;4.57;;;;;;;15.84;46.89;99416.66;5034007;28;20040;-69
2022/04/23 12:09:15;;;;;;;7.72;4.18;;;;;;;15.74;46.87;99413.22;5033900;28;20107;-69
2022/04/23 12:12:21;;;;;;;6.50;4.70;;;;;;;15.71;46.36;99409.06;5042253;28;20162;-69
2022/04/23 12:15:25;;;;;;;5.72;4.28;;;;;;;15.73;46.42;99416.81;5049313;28;20059;-70
2022/04/23 12:18:28;;;;;;;6.05;4.70;;;;;;;15.82;47.24;99413.31;5050356;28;20127;-70
2022/04/23 12:21:32;;;;;;;6.32;4.60;;;;;;;15.65;47.48;99421.91;5036516;28;20056;-69
2022/04/23 12:24:36;;;;;;;8.02;5.97;;;;;;;15.61;47.56;99416.09;5029085;28;20065;-70
2022/04/23 12:41:56;;;;;;;7.60;6.30;;;;;;;15.92;47.60;99406.25;5032609;28;20107;-69
2022/04/23 12:44:59;;;;;;;10.93;6.10;;;;;;;16.14;46.80;99397.16;5036945;28;20455;-69
2022/04/23 12:48:06;;;;;;;7.55;6.00;;;;;;;16.33;46.69;99396.28;5049062;28;20051;-69
2022/04/23 12:51:09;;;;;;;9.15;6.88;;;;;;;16.36;45.67;99385.44;5044862;28;20101;-69
2022/04/23 12:54:13;;;;;;;7.22;6.32;;;;;;;16.48;45.91;99397.47;5041343;28;20060;-69
2022/04/23 12:57:16;;;;;;;7.68;6.20;;;;;;;16.35;45.98;99389.06;5041952;28;20135;-70
2022/04/23 13:00:21;;;;;;;8.80;5.90;;;;;;;16.60;45.30;99381.44;5042691;28;20057;-70
2022/04/23 13:09:56;;;;;;;10.95;6.78;;;;;;;16.39;46.32;99382.50;5052851;28;20419;-69
2022/04/23 13:12:59;;;;;;;8.95;7.07;;;;;;;16.18;46.29;99380.09;5053688;28;20102;-70
2022/04/23 13:16:03;;;;;;;8.93;7.90;;;;;;;16.16;46.94;99373.28;5076457;28;20052;-69
2022/04/23 13:19:06;;;;;;;8.57;7.07;;;;;;;16.15;46.72;99369.00;5048351;28;20479;-69
2022/04/23 13:22:10;;;;;;;11.18;8.02;;;;;;;16.26;47.12;99368.81;5052148;28;20055;-69
2022/04/23 13:25:15;;;;;;;10.93;8.43;;;;;;;16.52;46.51;99375.06;5051806;28;20524;-70
2022/04/23 13:28:22;;;;;;;10.07;8.30;;;;;;;16.47;45.87;99360.69;5052039;28;20068;-69
2022/04/23 13:31:26;;;;;;;10.07;8.48;;;;;;;16.48;46.59;99357.88;5051262;28;20063;-69
2022/04/23 13:34:30;;;;;;;9.55;8.02;;;;;;;16.40;46.62;99359.59;5052001;28;20036;-69
2022/04/23 13:37:34;;;;;;;10.23;8.23;;;;;;;16.26;46.94;99358.25;5047381;28;20221;-69
2022/04/23 13:40:38;;;;;;;11.25;8.77;;;;;;;16.23;47.15;99345.38;5028556;28;20095;-70
2022/04/23 13:43:43;;;;;;;9.85;8.85;;;;;;;16.28;46.98;99351.03;5027655;28;20099;-70
2022/04/23 13:46:49;;;;;;;12.70;10.77;;;;;;;15.82;47.55;99357.97;5028273;28;20036;-69
2022/04/23 13:49:52;;;;;;;12.55;9.48;;;;;;;15.64;48.16;99351.75;5027813;28;20052;-69
2022/04/23 13:52:55;;;;;;;12.73;9.55;;;;;;;15.48;48.91;99358.44;5028644;28;20122;-69
2022/04/23 13:55:59;;;;;;;10.95;9.80;;;;;;;15.30;49.36;99362.72;5033642;28;22041;-69
2022/04/23 13:59:03;;;;;;;13.43;10.32;;;;;;;15.27;49.32;99355.09;5047645;28;20256;-70
2022/04/23 14:12:12;;;;;;;13.98;10.32;;;;;;;15.69;48.81;99349.53;5031704;28;20119;-69
2022/04/23 14:15:16;;;;;;;11.40;10.20;;;;;;;15.64;49.03;99346.50;5031621;28;20515;-69
2022/04/23 14:18:20;;;;;;;11.63;10.05;;;;;;;15.66;49.36;99345.34;5018884;28;20047;-70
2022/04/23 14:21:23;;;;;;;12.55;11.25;;;;;;;15.57;49.78;99338.28;5031245;28;20049;-69
2022/04/23 14:24:27;;;;;;;12.25;10.65;;;;;;;15.58;49.66;99343.44;5051908;28;20136;-69
2022/04/23 14:27:32;;;;;;;12.90;11.20;;;;;;;15.65;48.96;99329.69;5051685;28;20144;-70
2022/04/23 14:30:36;;;;;;;13.60;11.23;;;;;;;15.80;48.82;99328.31;5051200;28;20047;-69
2022/04/23 14:33:39;;;;;;;14.13;10.52;;;;;;;15.90;48.75;99326.47;5038091;28;20040;-69
2022/04/23 14:36:43;;;;;;;13.25;9.85;;;;;;;15.87;49.13;99323.28;5037298;28;20452;-69
2022/04/23 14:39:46;;;;;;;14.77;11.38;;;;;;;15.67;49.01;99319.88;5030903;28;20048;-70
2022/04/23 14:42:57;;;;;;;12.30;9.38;;;;;;;15.63;48.98;99324.56;5031337;28;20064;-69
2022/04/23 14:46:02;;;;;;;11.75;10.02;;;;;;;15.56;49.16;99324.28;5030451;28;20401;-69
2022/04/23 14:49:07;;;;;;;11.30;9.63;;;;;;;15.40;49.54;99318.78;5031181;28;20421;-70
2022/04/23 14:55:34;;;;;;;9.88;8.82;;;;;;;15.40;49.74;99324.03;5030603;28;20061;-69
2022/04/23 14:58:38;;;;;;;10.60;9.27;;;;;;;15.35;50.04;99311.31;5030323;28;20068;-70
2022/04/23 15:01:42;;;;;;;11.80;9.68;;;;;;;15.49;50.02;99322.38;5031134;28;20044;-69
2022/04/23 15:04:45;;;;;;;13.25;10.60;;;;;;;15.53;49.79;99316.66;5030280;28;20133;-69
2022/04/23 15:07:48;;;;;;;10.73;9.63;;;;;;;15.41;50.68;99309.91;5031368;28;20527;-67
2022/04/23 15:10:52;;;;;;;14.85;11.45;;;;;;;15.38;51.02;99311.97;5031100;28;20048;-68
2022/04/23 15:13:56;;;;;;;12.70;11.32;;;;;;;15.34;51.05;99316.69;5036364;28;20039;-67
2022/04/23 15:17:01;;;;;;;12.43;10.82;;;;;;;15.17;50.76;99302.44;5036815;28;20044;-67
2022/04/23 15:20:05;;;;;;;11.27;10.05;;;;;;;15.26;49.45;99300.78;5034938;28;20132;-67
2022/04/23 15:23:09;;;;;;;11.88;9.75;;;;;;;15.27;49.35;99297.16;5035452;28;20098;-68
2022/04/23 15:26:14;;;;;;;11.18;9.45;;;;;;;15.30;49.84;99295.09;5034693;28;20056;-67
2022/04/23 15:29:19;;;;;;;10.77;9.68;;;;;;;15.31;49.64;99301.16;5050592;28;20552;-67
2022/04/23 15:32:24;;;;;;;11.60;8.93;;;;;;;15.38;49.35;99293.53;5053386;28;20047;-67